aviador You're here:

CYAM Decoded Metar

SAULT SAINTE MARIE in ON, CANADA
Report Time2017-12-17 00:00:00
UTC Time2017-12-17 00:24:28
Flight Rules vfr VFR
WindVRB at 02 kt
Visibility9999 m
Phenomena:N/A
Clouds:Broken 120 Hf
Broken 230 Hf
Expected CloudBase > 1,200 ft AGL from Temp-Dew spread
Ceiling12,000 ft
Temp-20°C (ISA -34)
Dew Point-23°C (77% RH)
AAT-24.4°C
QNH1023 hPa
Density Alt-4,016 ft
Elevation630 ft
Report Wrong Elevation
Raw Report
CYAM 170000Z VRB02KT 15SM BKN120 BKN230 M20/M23 A3021 RMK AC5CI1
SLP251=

Extra information for CYAM:More info

Metar Taf Metar & Taf Last 4 Metars F.Rules Stats Wind Profile Meteogram Temp Stats Airport Information Weather charts Add Link Nearby VenuesMetar ALERT Operation Metar Decoded Social comments